Free aircraft booking by Goboko

Please sign in again to add membership details

Sign in

Links

Info

Aviation weather - KDAB

METAR KDAB 192353Z 09004KT 10SM FEW035 FEW150 26/22 A2996 RMK AO2 SLP146 T02610222 10306 20261 53004

TAF KDAB 192332Z 2000/2024 06004KT P6SM FEW035 SCT250 FM201800 07009KT P6SM FEW040 SCT250

Aviation weather from ADDS. Re-check weather before flight.

-